sensor_id;sensor_type;location;lat;lon;timestamp;P1;durP1;ratioP1;P2;durP2;ratioP2
40997;SDS011;26740;45.944;12.480;2023-10-31T00:01:44;11.68;;;3.08;;
40997;SDS011;26740;45.944;12.480;2023-10-31T00:04:10;12.30;;;1.75;;
40997;SDS011;26740;45.944;12.480;2023-10-31T00:06:36;12.85;;;1.98;;
40997;SDS011;26740;45.944;12.480;2023-10-31T00:09:02;10.02;;;1.77;;
40997;SDS011;26740;45.944;12.480;2023-10-31T00:11:27;8.85;;;1.70;;
40997;SDS011;26740;45.944;12.480;2023-10-31T00:13:53;13.23;;;1.65;;
40997;SDS011;26740;45.944;12.480;2023-10-31T00:16:19;11.10;;;1.85;;
40997;SDS011;26740;45.944;12.480;2023-10-31T00:18:44;10.10;;;1.58;;
40997;SDS011;26740;45.944;12.480;2023-10-31T00:21:10;7.53;;;1.00;;
40997;SDS011;26740;45.944;12.480;2023-10-31T00:23:42;13.20;;;2.83;;
40997;SDS011;26740;45.944;12.480;2023-10-31T00:26:11;7.53;;;1.67;;
40997;SDS011;26740;45.944;12.480;2023-10-31T00:28:37;14.05;;;1.77;;
40997;SDS011;26740;45.944;12.480;2023-10-31T00:31:02;14.18;;;1.50;;
40997;SDS011;26740;45.944;12.480;2023-10-31T00:33:29;11.75;;;1.35;;
40997;SDS011;26740;45.944;12.480;2023-10-31T00:35:55;12.95;;;1.10;;
40997;SDS011;26740;45.944;12.480;2023-10-31T00:38:21;9.75;;;0.90;;
40997;SDS011;26740;45.944;12.480;2023-10-31T00:40:46;8.98;;;1.13;;
40997;SDS011;26740;45.944;12.480;2023-10-31T00:43:12;11.65;;;1.17;;
40997;SDS011;26740;45.944;12.480;2023-10-31T00:45:37;10.05;;;1.23;;
40997;SDS011;26740;45.944;12.480;2023-10-31T00:48:03;8.32;;;0.88;;
40997;SDS011;26740;45.944;12.480;2023-10-31T00:50:29;6.07;;;0.88;;
40997;SDS011;26740;45.944;12.480;2023-10-31T00:52:55;11.75;;;1.85;;
40997;SDS011;26740;45.944;12.480;2023-10-31T00:55:20;10.98;;;1.65;;
40997;SDS011;26740;45.944;12.480;2023-10-31T00:57:46;4.97;;;0.65;;
40997;SDS011;26740;45.944;12.480;2023-10-31T01:00:12;7.72;;;0.90;;
40997;SDS011;26740;45.944;12.480;2023-10-31T01:02:37;4.63;;;0.65;;
40997;SDS011;26740;45.944;12.480;2023-10-31T01:05:03;7.47;;;0.80;;
40997;SDS011;26740;45.944;12.480;2023-10-31T01:07:29;7.97;;;0.82;;
40997;SDS011;26740;45.944;12.480;2023-10-31T01:09:55;4.80;;;1.02;;
40997;SDS011;26740;45.944;12.480;2023-10-31T01:12:20;8.60;;;1.20;;
40997;SDS011;26740;45.944;12.480;2023-10-31T01:14:46;11.95;;;0.82;;
40997;SDS011;26740;45.944;12.480;2023-10-31T01:17:11;10.95;;;1.00;;
40997;SDS011;26740;45.944;12.480;2023-10-31T01:19:37;7.25;;;0.90;;
40997;SDS011;26740;45.944;12.480;2023-10-31T01:22:03;3.80;;;0.60;;
40997;SDS011;26740;45.944;12.480;2023-10-31T01:24:28;4.40;;;0.68;;
40997;SDS011;26740;45.944;12.480;2023-10-31T01:26:54;3.50;;;0.50;;
40997;SDS011;26740;45.944;12.480;2023-10-31T01:29:19;3.47;;;0.73;;
40997;SDS011;26740;45.944;12.480;2023-10-31T01:31:45;3.80;;;0.68;;
40997;SDS011;26740;45.944;12.480;2023-10-31T01:34:11;5.93;;;0.75;;
40997;SDS011;26740;45.944;12.480;2023-10-31T01:36:36;7.15;;;1.02;;
40997;SDS011;26740;45.944;12.480;2023-10-31T01:39:02;4.82;;;1.25;;
40997;SDS011;26740;45.944;12.480;2023-10-31T01:41:28;3.00;;;0.70;;
40997;SDS011;26740;45.944;12.480;2023-10-31T01:43:53;7.35;;;0.70;;
40997;SDS011;26740;45.944;12.480;2023-10-31T01:46:19;5.53;;;0.75;;
40997;SDS011;26740;45.944;12.480;2023-10-31T01:48:45;5.82;;;0.60;;
40997;SDS011;26740;45.944;12.480;2023-10-31T01:51:11;9.65;;;0.98;;
40997;SDS011;26740;45.944;12.480;2023-10-31T01:53:36;5.38;;;0.80;;
40997;SDS011;26740;45.944;12.480;2023-10-31T01:56:03;3.50;;;0.80;;
40997;SDS011;26740;45.944;12.480;2023-10-31T01:58:34;4.82;;;0.93;;
40997;SDS011;26740;45.944;12.480;2023-10-31T02:01:01;4.05;;;0.88;;
40997;SDS011;26740;45.944;12.480;2023-10-31T02:03:28;3.38;;;0.47;;
40997;SDS011;26740;45.944;12.480;2023-10-31T02:05:54;4.00;;;0.63;;
40997;SDS011;26740;45.944;12.480;2023-10-31T02:08:20;4.18;;;1.33;;
40997;SDS011;26740;45.944;12.480;2023-10-31T02:10:46;2.38;;;0.57;;
40997;SDS011;26740;45.944;12.480;2023-10-31T02:13:12;5.18;;;0.70;;
40997;SDS011;26740;45.944;12.480;2023-10-31T02:15:41;5.65;;;0.85;;
40997;SDS011;26740;45.944;12.480;2023-10-31T02:18:08;1.73;;;0.35;;
40997;SDS011;26740;45.944;12.480;2023-10-31T02:20:34;3.72;;;0.80;;
40997;SDS011;26740;45.944;12.480;2023-10-31T02:23:01;4.45;;;0.60;;
40997;SDS011;26740;45.944;12.480;2023-10-31T02:25:27;4.22;;;0.50;;
40997;SDS011;26740;45.944;12.480;2023-10-31T02:27:53;3.45;;;0.90;;
40997;SDS011;26740;45.944;12.480;2023-10-31T02:30:19;3.78;;;0.88;;
40997;SDS011;26740;45.944;12.480;2023-10-31T02:32:44;3.95;;;0.82;;
40997;SDS011;26740;45.944;12.480;2023-10-31T02:35:10;6.38;;;0.82;;
40997;SDS011;26740;45.944;12.480;2023-10-31T02:37:36;4.00;;;0.68;;
40997;SDS011;26740;45.944;12.480;2023-10-31T02:40:02;6.60;;;0.70;;
40997;SDS011;26740;45.944;12.480;2023-10-31T02:42:28;3.83;;;0.70;;
40997;SDS011;26740;45.944;12.480;2023-10-31T02:44:54;3.95;;;0.43;;
40997;SDS011;26740;45.944;12.480;2023-10-31T02:47:19;6.88;;;0.60;;
40997;SDS011;26740;45.944;12.480;2023-10-31T02:49:45;4.30;;;0.60;;
40997;SDS011;26740;45.944;12.480;2023-10-31T02:52:11;1.98;;;0.50;;
40997;SDS011;26740;45.944;12.480;2023-10-31T02:54:36;4.13;;;0.57;;
40997;SDS011;26740;45.944;12.480;2023-10-31T02:57:02;1.98;;;0.50;;
40997;SDS011;26740;45.944;12.480;2023-10-31T02:59:28;0.95;;;0.30;;
40997;SDS011;26740;45.944;12.480;2023-10-31T03:01:56;10.18;;;1.55;;
40997;SDS011;26740;45.944;12.480;2023-10-31T03:04:22;5.43;;;0.60;;
40997;SDS011;26740;45.944;12.480;2023-10-31T03:06:47;2.10;;;0.30;;
40997;SDS011;26740;45.944;12.480;2023-10-31T03:09:13;1.67;;;0.50;;
40997;SDS011;26740;45.944;12.480;2023-10-31T03:11:38;4.65;;;0.50;;
40997;SDS011;26740;45.944;12.480;2023-10-31T03:14:04;2.83;;;0.43;;
40997;SDS011;26740;45.944;12.480;2023-10-31T03:16:29;4.80;;;0.38;;
40997;SDS011;26740;45.944;12.480;2023-10-31T03:18:55;2.40;;;0.40;;
40997;SDS011;26740;45.944;12.480;2023-10-31T03:21:21;6.53;;;0.52;;
40997;SDS011;26740;45.944;12.480;2023-10-31T03:23:47;1.73;;;0.30;;
40997;SDS011;26740;45.944;12.480;2023-10-31T03:26:14;39.22;;;2.03;;
40997;SDS011;26740;45.944;12.480;2023-10-31T03:28:40;1.05;;;0.20;;
40997;SDS011;26740;45.944;12.480;2023-10-31T03:31:07;4.40;;;0.20;;
40997;SDS011;26740;45.944;12.480;2023-10-31T03:33:34;5.88;;;0.40;;
40997;SDS011;26740;45.944;12.480;2023-10-31T03:35:59;1.30;;;0.40;;
40997;SDS011;26740;45.944;12.480;2023-10-31T03:38:25;1.95;;;0.30;;
40997;SDS011;26740;45.944;12.480;2023-10-31T03:40:50;1.27;;;0.20;;
40997;SDS011;26740;45.944;12.480;2023-10-31T03:43:16;1.23;;;0.40;;
40997;SDS011;26740;45.944;12.480;2023-10-31T03:45:41;0.80;;;0.20;;
40997;SDS011;26740;45.944;12.480;2023-10-31T03:48:07;0.88;;;0.30;;
40997;SDS011;26740;45.944;12.480;2023-10-31T03:50:33;17.05;;;0.73;;
40997;SDS011;26740;45.944;12.480;2023-10-31T03:52:59;2.75;;;0.30;;
40997;SDS011;26740;45.944;12.480;2023-10-31T03:55:24;1.13;;;0.40;;
40997;SDS011;26740;45.944;12.480;2023-10-31T03:57:50;1.08;;;0.30;;
40997;SDS011;26740;45.944;12.480;2023-10-31T04:00:16;2.20;;;0.20;;
40997;SDS011;26740;45.944;12.480;2023-10-31T04:02:41;0.85;;;0.30;;
40997;SDS011;26740;45.944;12.480;2023-10-31T04:05:07;0.90;;;0.40;;
40997;SDS011;26740;45.944;12.480;2023-10-31T04:07:33;1.80;;;0.20;;
40997;SDS011;26740;45.944;12.480;2023-10-31T04:09:59;0.95;;;0.40;;
40997;SDS011;26740;45.944;12.480;2023-10-31T04:12:24;1.52;;;0.32;;
40997;SDS011;26740;45.944;12.480;2023-10-31T04:14:50;1.55;;;0.60;;
40997;SDS011;26740;45.944;12.480;2023-10-31T04:17:15;3.40;;;0.70;;
40997;SDS011;26740;45.944;12.480;2023-10-31T04:19:41;1.27;;;0.52;;
40997;SDS011;26740;45.944;12.480;2023-10-31T04:22:07;5.25;;;0.50;;
40997;SDS011;26740;45.944;12.480;2023-10-31T04:24:32;4.32;;;0.60;;
40997;SDS011;26740;45.944;12.480;2023-10-31T04:26:58;5.07;;;0.82;;
40997;SDS011;26740;45.944;12.480;2023-10-31T04:29:23;3.60;;;0.60;;
40997;SDS011;26740;45.944;12.480;2023-10-31T04:31:49;3.67;;;0.50;;
40997;SDS011;26740;45.944;12.480;2023-10-31T04:34:14;2.13;;;0.40;;
40997;SDS011;26740;45.944;12.480;2023-10-31T04:36:40;2.90;;;0.95;;
40997;SDS011;26740;45.944;12.480;2023-10-31T04:39:06;2.25;;;0.40;;
40997;SDS011;26740;45.944;12.480;2023-10-31T04:41:31;2.75;;;1.17;;
40997;SDS011;26740;45.944;12.480;2023-10-31T04:43:57;1.77;;;0.47;;
40997;SDS011;26740;45.944;12.480;2023-10-31T04:46:24;2.20;;;0.47;;
40997;SDS011;26740;45.944;12.480;2023-10-31T04:48:52;1.97;;;0.63;;
40997;SDS011;26740;45.944;12.480;2023-10-31T04:51:18;3.30;;;0.47;;
40997;SDS011;26740;45.944;12.480;2023-10-31T04:53:44;2.50;;;0.40;;
40997;SDS011;26740;45.944;12.480;2023-10-31T04:56:12;3.60;;;0.35;;
40997;SDS011;26740;45.944;12.480;2023-10-31T04:58:40;2.85;;;0.55;;
40997;SDS011;26740;45.944;12.480;2023-10-31T05:01:09;2.20;;;0.60;;
40997;SDS011;26740;45.944;12.480;2023-10-31T05:03:38;1.45;;;0.43;;
40997;SDS011;26740;45.944;12.480;2023-10-31T05:06:04;4.22;;;0.80;;
40997;SDS011;26740;45.944;12.480;2023-10-31T05:08:30;2.80;;;0.70;;
40997;SDS011;26740;45.944;12.480;2023-10-31T05:10:57;5.93;;;0.85;;
40997;SDS011;26740;45.944;12.480;2023-10-31T05:13:24;3.92;;;0.40;;
40997;SDS011;26740;45.944;12.480;2023-10-31T05:15:49;3.15;;;0.60;;
40997;SDS011;26740;45.944;12.480;2023-10-31T05:18:15;3.75;;;0.70;;
40997;SDS011;26740;45.944;12.480;2023-10-31T05:20:41;3.03;;;0.57;;
40997;SDS011;26740;45.944;12.480;2023-10-31T05:23:07;5.72;;;0.70;;
40997;SDS011;26740;45.944;12.480;2023-10-31T05:25:33;2.97;;;0.52;;
40997;SDS011;26740;45.944;12.480;2023-10-31T05:27:59;1.75;;;0.45;;
40997;SDS011;26740;45.944;12.480;2023-10-31T05:30:25;3.35;;;0.60;;
40997;SDS011;26740;45.944;12.480;2023-10-31T05:32:51;3.00;;;0.50;;
40997;SDS011;26740;45.944;12.480;2023-10-31T05:35:17;2.08;;;0.65;;
40997;SDS011;26740;45.944;12.480;2023-10-31T05:37:43;1.58;;;0.50;;
40997;SDS011;26740;45.944;12.480;2023-10-31T05:40:09;3.65;;;0.70;;
40997;SDS011;26740;45.944;12.480;2023-10-31T05:42:35;2.08;;;0.50;;
40997;SDS011;26740;45.944;12.480;2023-10-31T05:45:01;3.38;;;0.50;;
40997;SDS011;26740;45.944;12.480;2023-10-31T05:47:26;6.45;;;1.15;;
40997;SDS011;26740;45.944;12.480;2023-10-31T05:49:53;1.38;;;0.50;;
40997;SDS011;26740;45.944;12.480;2023-10-31T05:52:18;4.07;;;0.98;;
40997;SDS011;26740;45.944;12.480;2023-10-31T05:54:44;4.80;;;0.75;;
40997;SDS011;26740;45.944;12.480;2023-10-31T05:57:09;7.78;;;1.92;;
40997;SDS011;26740;45.944;12.480;2023-10-31T05:59:35;3.83;;;1.30;;
40997;SDS011;26740;45.944;12.480;2023-10-31T06:02:01;3.72;;;0.85;;
40997;SDS011;26740;45.944;12.480;2023-10-31T06:04:26;2.67;;;1.02;;
40997;SDS011;26740;45.944;12.480;2023-10-31T06:06:52;3.78;;;0.85;;
40997;SDS011;26740;45.944;12.480;2023-10-31T06:09:17;4.47;;;0.80;;
40997;SDS011;26740;45.944;12.480;2023-10-31T06:11:43;5.05;;;1.00;;
40997;SDS011;26740;45.944;12.480;2023-10-31T06:14:09;3.80;;;1.10;;
40997;SDS011;26740;45.944;12.480;2023-10-31T06:16:41;3.30;;;1.20;;
40997;SDS011;26740;45.944;12.480;2023-10-31T06:19:07;3.95;;;1.00;;
40997;SDS011;26740;45.944;12.480;2023-10-31T06:21:33;2.72;;;0.77;;
40997;SDS011;26740;45.944;12.480;2023-10-31T06:23:58;2.40;;;0.55;;
40997;SDS011;26740;45.944;12.480;2023-10-31T06:26:24;3.28;;;1.05;;
40997;SDS011;26740;45.944;12.480;2023-10-31T06:28:50;3.78;;;0.90;;
40997;SDS011;26740;45.944;12.480;2023-10-31T06:31:15;2.97;;;0.90;;
40997;SDS011;26740;45.944;12.480;2023-10-31T06:33:41;4.78;;;0.75;;
40997;SDS011;26740;45.944;12.480;2023-10-31T06:36:06;1.85;;;0.50;;
40997;SDS011;26740;45.944;12.480;2023-10-31T06:38:32;1.63;;;0.45;;
40997;SDS011;26740;45.944;12.480;2023-10-31T06:40:58;1.80;;;0.50;;
40997;SDS011;26740;45.944;12.480;2023-10-31T06:43:24;2.78;;;0.30;;
40997;SDS011;26740;45.944;12.480;2023-10-31T06:45:50;0.95;;;0.38;;
40997;SDS011;26740;45.944;12.480;2023-10-31T06:48:15;1.50;;;0.40;;
40997;SDS011;26740;45.944;12.480;2023-10-31T06:50:41;3.90;;;0.40;;
40997;SDS011;26740;45.944;12.480;2023-10-31T06:53:06;1.45;;;0.30;;
40997;SDS011;26740;45.944;12.480;2023-10-31T06:55:32;2.35;;;0.30;;
40997;SDS011;26740;45.944;12.480;2023-10-31T06:57:57;1.42;;;0.30;;
40997;SDS011;26740;45.944;12.480;2023-10-31T07:00:23;1.02;;;0.28;;
40997;SDS011;26740;45.944;12.480;2023-10-31T07:02:49;3.25;;;0.20;;
40997;SDS011;26740;45.944;12.480;2023-10-31T07:05:14;0.95;;;0.40;;
40997;SDS011;26740;45.944;12.480;2023-10-31T07:07:41;2.92;;;0.60;;
40997;SDS011;26740;45.944;12.480;2023-10-31T07:10:07;1.35;;;0.50;;
40997;SDS011;26740;45.944;12.480;2023-10-31T07:12:32;1.30;;;0.30;;
40997;SDS011;26740;45.944;12.480;2023-10-31T07:14:58;1.05;;;0.52;;
40997;SDS011;26740;45.944;12.480;2023-10-31T07:17:24;2.78;;;0.40;;
40997;SDS011;26740;45.944;12.480;2023-10-31T07:19:51;1.80;;;0.30;;
40997;SDS011;26740;45.944;12.480;2023-10-31T07:22:16;2.65;;;0.30;;
40997;SDS011;26740;45.944;12.480;2023-10-31T07:24:42;1.58;;;0.40;;
40997;SDS011;26740;45.944;12.480;2023-10-31T07:27:08;3.25;;;0.60;;
40997;SDS011;26740;45.944;12.480;2023-10-31T07:29:34;1.85;;;0.40;;
40997;SDS011;26740;45.944;12.480;2023-10-31T07:31:59;2.40;;;0.47;;
40997;SDS011;26740;45.944;12.480;2023-10-31T07:34:25;5.95;;;0.63;;
40997;SDS011;26740;45.944;12.480;2023-10-31T07:36:51;1.38;;;0.52;;
40997;SDS011;26740;45.944;12.480;2023-10-31T07:39:16;3.20;;;0.40;;
40997;SDS011;26740;45.944;12.480;2023-10-31T07:41:42;3.22;;;0.45;;
40997;SDS011;26740;45.944;12.480;2023-10-31T07:44:07;2.25;;;0.30;;
40997;SDS011;26740;45.944;12.480;2023-10-31T07:46:33;2.85;;;0.35;;
40997;SDS011;26740;45.944;12.480;2023-10-31T07:48:59;2.33;;;0.35;;
40997;SDS011;26740;45.944;12.480;2023-10-31T07:51:25;2.33;;;0.30;;
40997;SDS011;26740;45.944;12.480;2023-10-31T07:53:50;5.18;;;0.40;;
40997;SDS011;26740;45.944;12.480;2023-10-31T07:56:17;3.78;;;0.68;;
40997;SDS011;26740;45.944;12.480;2023-10-31T07:58:48;1.88;;;0.30;;
40997;SDS011;26740;45.944;12.480;2023-10-31T08:01:14;4.43;;;0.50;;
40997;SDS011;26740;45.944;12.480;2023-10-31T08:03:41;4.25;;;0.82;;
40997;SDS011;26740;45.944;12.480;2023-10-31T08:06:07;3.80;;;0.60;;
40997;SDS011;26740;45.944;12.480;2023-10-31T08:08:32;4.40;;;0.40;;
40997;SDS011;26740;45.944;12.480;2023-10-31T08:10:59;4.25;;;0.68;;
40997;SDS011;26740;45.944;12.480;2023-10-31T08:13:25;3.83;;;0.82;;
40997;SDS011;26740;45.944;12.480;2023-10-31T08:15:51;2.17;;;0.40;;
40997;SDS011;26740;45.944;12.480;2023-10-31T08:18:16;1.40;;;0.30;;
40997;SDS011;26740;45.944;12.480;2023-10-31T08:20:42;3.47;;;0.77;;
40997;SDS011;26740;45.944;12.480;2023-10-31T08:23:08;2.72;;;0.50;;
40997;SDS011;26740;45.944;12.480;2023-10-31T08:25:34;5.00;;;0.57;;
40997;SDS011;26740;45.944;12.480;2023-10-31T08:27:59;3.33;;;0.40;;
40997;SDS011;26740;45.944;12.480;2023-10-31T08:30:25;3.65;;;0.30;;
40997;SDS011;26740;45.944;12.480;2023-10-31T08:32:50;2.58;;;0.50;;
40997;SDS011;26740;45.944;12.480;2023-10-31T08:35:16;1.85;;;0.30;;
40997;SDS011;26740;45.944;12.480;2023-10-31T08:37:41;2.25;;;0.30;;
40997;SDS011;26740;45.944;12.480;2023-10-31T08:40:07;2.05;;;0.60;;
40997;SDS011;26740;45.944;12.480;2023-10-31T08:42:33;1.42;;;0.20;;
40997;SDS011;26740;45.944;12.480;2023-10-31T08:44:59;3.47;;;0.40;;
40997;SDS011;26740;45.944;12.480;2023-10-31T08:47:24;2.55;;;0.30;;
40997;SDS011;26740;45.944;12.480;2023-10-31T08:49:50;1.77;;;0.20;;
40997;SDS011;26740;45.944;12.480;2023-10-31T08:52:16;4.50;;;0.30;;
40997;SDS011;26740;45.944;12.480;2023-10-31T08:54:43;3.90;;;0.40;;
40997;SDS011;26740;45.944;12.480;2023-10-31T08:57:08;1.10;;;0.30;;
40997;SDS011;26740;45.944;12.480;2023-10-31T08:59:34;1.42;;;0.40;;
40997;SDS011;26740;45.944;12.480;2023-10-31T09:02:01;1.70;;;0.45;;
40997;SDS011;26740;45.944;12.480;2023-10-31T09:04:27;1.90;;;0.75;;
40997;SDS011;26740;45.944;12.480;2023-10-31T09:06:53;1.42;;;0.38;;
40997;SDS011;26740;45.944;12.480;2023-10-31T09:09:18;3.42;;;0.47;;
40997;SDS011;26740;45.944;12.480;2023-10-31T09:11:44;2.22;;;0.20;;
40997;SDS011;26740;45.944;12.480;2023-10-31T09:14:09;0.88;;;0.20;;
40997;SDS011;26740;45.944;12.480;2023-10-31T09:16:35;2.38;;;0.50;;
40997;SDS011;26740;45.944;12.480;2023-10-31T09:19:00;1.20;;;0.20;;
40997;SDS011;26740;45.944;12.480;2023-10-31T09:21:26;0.98;;;0.32;;
40997;SDS011;26740;45.944;12.480;2023-10-31T09:23:51;1.13;;;0.28;;
40997;SDS011;26740;45.944;12.480;2023-10-31T09:26:17;1.35;;;0.22;;
40997;SDS011;26740;45.944;12.480;2023-10-31T09:28:43;1.55;;;0.30;;
40997;SDS011;26740;45.944;12.480;2023-10-31T09:31:15;2.80;;;0.28;;
40997;SDS011;26740;45.944;12.480;2023-10-31T09:33:42;1.23;;;0.30;;
40997;SDS011;26740;45.944;12.480;2023-10-31T09:36:08;1.58;;;0.30;;
40997;SDS011;26740;45.944;12.480;2023-10-31T09:38:33;1.60;;;0.50;;
40997;SDS011;26740;45.944;12.480;2023-10-31T09:40:59;3.10;;;0.60;;
40997;SDS011;26740;45.944;12.480;2023-10-31T09:43:24;1.13;;;0.22;;
40997;SDS011;26740;45.944;12.480;2023-10-31T09:45:50;3.38;;;0.30;;
40997;SDS011;26740;45.944;12.480;2023-10-31T09:48:17;1.65;;;0.30;;
40997;SDS011;26740;45.944;12.480;2023-10-31T09:50:45;0.75;;;0.32;;
40997;SDS011;26740;45.944;12.480;2023-10-31T09:53:13;1.55;;;0.20;;
40997;SDS011;26740;45.944;12.480;2023-10-31T09:55:39;1.17;;;0.20;;
40997;SDS011;26740;45.944;12.480;2023-10-31T09:58:06;1.92;;;0.20;;
40997;SDS011;26740;45.944;12.480;2023-10-31T10:00:32;1.20;;;0.30;;
40997;SDS011;26740;45.944;12.480;2023-10-31T10:02:57;0.60;;;0.30;;
40997;SDS011;26740;45.944;12.480;2023-10-31T10:05:24;3.42;;;0.30;;
40997;SDS011;26740;45.944;12.480;2023-10-31T10:07:50;3.05;;;0.40;;
40997;SDS011;26740;45.944;12.480;2023-10-31T10:10:15;1.83;;;0.50;;
40997;SDS011;26740;45.944;12.480;2023-10-31T10:12:42;0.88;;;0.30;;
40997;SDS011;26740;45.944;12.480;2023-10-31T10:15:09;2.75;;;0.22;;
40997;SDS011;26740;45.944;12.480;2023-10-31T10:17:35;1.73;;;0.30;;
40997;SDS011;26740;45.944;12.480;2023-10-31T10:20:05;0.80;;;0.15;;
40997;SDS011;26740;45.944;12.480;2023-10-31T10:22:40;3.10;;;0.40;;
40997;SDS011;26740;45.944;12.480;2023-10-31T10:25:10;0.57;;;0.40;;
40997;SDS011;26740;45.944;12.480;2023-10-31T10:27:43;1.65;;;0.40;;
40997;SDS011;26740;45.944;12.480;2023-10-31T10:30:10;0.90;;;0.10;;
40997;SDS011;26740;45.944;12.480;2023-10-31T10:32:37;1.27;;;0.38;;
40997;SDS011;26740;45.944;12.480;2023-10-31T10:35:03;1.90;;;0.30;;
40997;SDS011;26740;45.944;12.480;2023-10-31T10:37:29;1.23;;;0.20;;
40997;SDS011;26740;45.944;12.480;2023-10-31T10:39:56;0.40;;;0.10;;
40997;SDS011;26740;45.944;12.480;2023-10-31T10:42:45;0.65;;;0.15;;
40997;SDS011;26740;45.944;12.480;2023-10-31T10:45:13;1.40;;;0.15;;
40997;SDS011;26740;45.944;12.480;2023-10-31T10:47:41;1.63;;;0.10;;
40997;SDS011;26740;45.944;12.480;2023-10-31T10:50:12;0.30;;;0.30;;
40997;SDS011;26740;45.944;12.480;2023-10-31T10:52:41;0.55;;;0.10;;
40997;SDS011;26740;45.944;12.480;2023-10-31T10:55:13;1.23;;;0.80;;
40997;SDS011;26740;45.944;12.480;2023-10-31T11:00:20;4.47;;;3.40;;
40997;SDS011;26740;45.944;12.480;2023-10-31T11:02:50;0.20;;;0.10;;
40997;SDS011;26740;45.944;12.480;2023-10-31T11:05:18;0.20;;;0.08;;
40997;SDS011;26740;45.944;12.480;2023-10-31T11:07:44;0.15;;;0.00;;
40997;SDS011;26740;45.944;12.480;2023-10-31T11:10:11;0.20;;;0.00;;
40997;SDS011;26740;45.944;12.480;2023-10-31T11:12:37;1.10;;;0.30;;
40997;SDS011;26740;45.944;12.480;2023-10-31T11:15:06;0.50;;;0.10;;
40997;SDS011;26740;45.944;12.480;2023-10-31T11:17:36;0.30;;;0.03;;
40997;SDS011;26740;45.944;12.480;2023-10-31T11:25:32;1.38;;;0.10;;
40997;SDS011;26740;45.944;12.480;2023-10-31T11:28:14;0.15;;;0.00;;
40997;SDS011;26740;45.944;12.480;2023-10-31T11:30:41;0.10;;;0.00;;
40997;SDS011;26740;45.944;12.480;2023-10-31T11:33:11;0.15;;;0.00;;
40997;SDS011;26740;45.944;12.480;2023-10-31T11:35:41;0.30;;;0.00;;
40997;SDS011;26740;45.944;12.480;2023-10-31T11:38:09;1.48;;;0.00;;
40997;SDS011;26740;45.944;12.480;2023-10-31T11:43:14;0.77;;;0.00;;
40997;SDS011;26740;45.944;12.480;2023-10-31T11:45:44;2.53;;;0.00;;
40997;SDS011;26740;45.944;12.480;2023-10-31T11:48:12;0.47;;;0.00;;
40997;SDS011;26740;45.944;12.480;2023-10-31T11:50:39;0.28;;;0.00;;
40997;SDS011;26740;45.944;12.480;2023-10-31T11:53:08;0.73;;;0.30;;
40997;SDS011;26740;45.944;12.480;2023-10-31T11:55:41;0.00;;;0.00;;
40997;SDS011;26740;45.944;12.480;2023-10-31T12:00:44;0.30;;;0.00;;
40997;SDS011;26740;45.944;12.480;2023-10-31T12:03:11;0.80;;;0.10;;
40997;SDS011;26740;45.944;12.480;2023-10-31T12:05:37;0.60;;;0.10;;
40997;SDS011;26740;45.944;12.480;2023-10-31T12:08:03;0.30;;;0.10;;
40997;SDS011;26740;45.944;12.480;2023-10-31T12:10:29;0.10;;;0.00;;
40997;SDS011;26740;45.944;12.480;2023-10-31T12:12:58;0.13;;;0.10;;
40997;SDS011;26740;45.944;12.480;2023-10-31T12:15:24;0.00;;;0.00;;
40997;SDS011;26740;45.944;12.480;2023-10-31T12:17:50;0.00;;;0.00;;
40997;SDS011;26740;45.944;12.480;2023-10-31T12:20:16;0.25;;;0.00;;
40997;SDS011;26740;45.944;12.480;2023-10-31T12:22:42;0.00;;;0.00;;
40997;SDS011;26740;45.944;12.480;2023-10-31T12:25:09;0.17;;;0.00;;
40997;SDS011;26740;45.944;12.480;2023-10-31T12:27:42;1.55;;;0.00;;
40997;SDS011;26740;45.944;12.480;2023-10-31T12:30:11;0.10;;;0.00;;
40997;SDS011;26740;45.944;12.480;2023-10-31T12:32:44;0.63;;;0.10;;
40997;SDS011;26740;45.944;12.480;2023-10-31T12:35:20;0.47;;;0.03;;
40997;SDS011;26740;45.944;12.480;2023-10-31T12:37:47;0.20;;;0.00;;
40997;SDS011;26740;45.944;12.480;2023-10-31T12:40:16;0.15;;;0.00;;
40997;SDS011;26740;45.944;12.480;2023-10-31T12:42:43;0.00;;;0.00;;
40997;SDS011;26740;45.944;12.480;2023-10-31T12:45:09;0.65;;;0.10;;
40997;SDS011;26740;45.944;12.480;2023-10-31T12:47:36;0.22;;;0.20;;
40997;SDS011;26740;45.944;12.480;2023-10-31T12:50:12;0.10;;;0.00;;
40997;SDS011;26740;45.944;12.480;2023-10-31T12:52:48;0.13;;;0.00;;
40997;SDS011;26740;45.944;12.480;2023-10-31T12:55:14;2.75;;;0.00;;
40997;SDS011;26740;45.944;12.480;2023-10-31T12:57:41;0.17;;;0.10;;
40997;SDS011;26740;45.944;12.480;2023-10-31T13:00:07;0.17;;;0.10;;
40997;SDS011;26740;45.944;12.480;2023-10-31T13:02:36;0.20;;;0.10;;
40997;SDS011;26740;45.944;12.480;2023-10-31T13:07:37;0.05;;;0.00;;
40997;SDS011;26740;45.944;12.480;2023-10-31T13:10:06;0.00;;;0.00;;
40997;SDS011;26740;45.944;12.480;2023-10-31T13:12:36;0.65;;;0.00;;
40997;SDS011;26740;45.944;12.480;2023-10-31T13:15:02;3.03;;;0.10;;
40997;SDS011;26740;45.944;12.480;2023-10-31T13:17:28;0.00;;;0.00;;
40997;SDS011;26740;45.944;12.480;2023-10-31T13:19:53;0.10;;;0.10;;
40997;SDS011;26740;45.944;12.480;2023-10-31T13:22:19;0.10;;;0.10;;
40997;SDS011;26740;45.944;12.480;2023-10-31T13:24:45;2.30;;;0.00;;
40997;SDS011;26740;45.944;12.480;2023-10-31T13:27:11;0.30;;;0.10;;
40997;SDS011;26740;45.944;12.480;2023-10-31T13:32:06;0.00;;;0.00;;
40997;SDS011;26740;45.944;12.480;2023-10-31T13:34:33;0.10;;;0.00;;
40997;SDS011;26740;45.944;12.480;2023-10-31T13:36:59;2.05;;;0.10;;
40997;SDS011;26740;45.944;12.480;2023-10-31T13:39:24;0.10;;;0.00;;
40997;SDS011;26740;45.944;12.480;2023-10-31T13:41:50;0.00;;;0.00;;
40997;SDS011;26740;45.944;12.480;2023-10-31T13:44:16;1.00;;;0.10;;
40997;SDS011;26740;45.944;12.480;2023-10-31T13:46:41;0.00;;;0.00;;
40997;SDS011;26740;45.944;12.480;2023-10-31T13:49:08;0.30;;;0.00;;
40997;SDS011;26740;45.944;12.480;2023-10-31T13:51:34;0.10;;;0.00;;
40997;SDS011;26740;45.944;12.480;2023-10-31T13:53:59;0.00;;;0.00;;
40997;SDS011;26740;45.944;12.480;2023-10-31T13:56:25;0.10;;;0.10;;
40997;SDS011;26740;45.944;12.480;2023-10-31T13:58:51;0.10;;;0.00;;
40997;SDS011;26740;45.944;12.480;2023-10-31T14:01:16;0.40;;;0.00;;
40997;SDS011;26740;45.944;12.480;2023-10-31T14:03:42;0.25;;;0.25;;
40997;SDS011;26740;45.944;12.480;2023-10-31T14:06:08;0.20;;;0.00;;
40997;SDS011;26740;45.944;12.480;2023-10-31T14:08:34;0.10;;;0.10;;
40997;SDS011;26740;45.944;12.480;2023-10-31T14:10:59;0.00;;;0.00;;
40997;SDS011;26740;45.944;12.480;2023-10-31T14:13:25;0.20;;;0.08;;
40997;SDS011;26740;45.944;12.480;2023-10-31T14:15:51;0.85;;;0.00;;
40997;SDS011;26740;45.944;12.480;2023-10-31T14:18:17;0.10;;;0.00;;
40997;SDS011;26740;45.944;12.480;2023-10-31T14:20:42;0.10;;;0.10;;
40997;SDS011;26740;45.944;12.480;2023-10-31T14:23:08;0.55;;;0.00;;
40997;SDS011;26740;45.944;12.480;2023-10-31T14:25:33;0.10;;;0.00;;
40997;SDS011;26740;45.944;12.480;2023-10-31T14:27:59;0.20;;;0.00;;
40997;SDS011;26740;45.944;12.480;2023-10-31T14:30:25;0.10;;;0.00;;
40997;SDS011;26740;45.944;12.480;2023-10-31T14:32:51;0.10;;;0.00;;
40997;SDS011;26740;45.944;12.480;2023-10-31T14:35:16;0.20;;;0.00;;
40997;SDS011;26740;45.944;12.480;2023-10-31T14:37:42;3.83;;;0.00;;
40997;SDS011;26740;45.944;12.480;2023-10-31T14:40:08;0.10;;;0.00;;
40997;SDS011;26740;45.944;12.480;2023-10-31T14:42:34;0.10;;;0.00;;
40997;SDS011;26740;45.944;12.480;2023-10-31T14:45:00;0.20;;;0.00;;
40997;SDS011;26740;45.944;12.480;2023-10-31T14:47:25;0.00;;;0.00;;